sensor_id;sensor_type;location;lat;lon;timestamp;P1;durP1;ratioP1;P2;durP2;ratioP2
13999;SDS011;7075;53.574;10.054;2022-10-17T00:00:26;116.03;;;109.95;;
13999;SDS011;7075;53.574;10.054;2022-10-17T00:02:53;110.30;;;104.47;;
13999;SDS011;7075;53.574;10.054;2022-10-17T00:05:19;114.75;;;108.60;;
13999;SDS011;7075;53.574;10.054;2022-10-17T00:07:45;113.47;;;107.57;;
13999;SDS011;7075;53.574;10.054;2022-10-17T00:10:10;113.75;;;107.95;;
13999;SDS011;7075;53.574;10.054;2022-10-17T00:12:36;124.40;;;117.90;;
13999;SDS011;7075;53.574;10.054;2022-10-17T00:15:03;128.50;;;121.72;;
13999;SDS011;7075;53.574;10.054;2022-10-17T00:17:31;132.37;;;125.27;;
13999;SDS011;7075;53.574;10.054;2022-10-17T00:19:57;121.90;;;115.10;;
13999;SDS011;7075;53.574;10.054;2022-10-17T00:22:24;121.88;;;115.32;;
13999;SDS011;7075;53.574;10.054;2022-10-17T00:24:50;124.33;;;117.63;;
13999;SDS011;7075;53.574;10.054;2022-10-17T00:27:15;121.07;;;114.67;;
13999;SDS011;7075;53.574;10.054;2022-10-17T00:29:41;125.80;;;119.10;;
13999;SDS011;7075;53.574;10.054;2022-10-17T00:32:06;131.10;;;124.00;;
13999;SDS011;7075;53.574;10.054;2022-10-17T00:34:32;139.77;;;132.20;;
13999;SDS011;7075;53.574;10.054;2022-10-17T00:36:57;140.87;;;133.07;;
13999;SDS011;7075;53.574;10.054;2022-10-17T00:39:23;141.07;;;133.67;;
13999;SDS011;7075;53.574;10.054;2022-10-17T00:41:49;151.40;;;143.15;;
13999;SDS011;7075;53.574;10.054;2022-10-17T00:46:56;174.55;;;164.95;;
13999;SDS011;7075;53.574;10.054;2022-10-17T00:49:24;176.43;;;167.07;;
13999;SDS011;7075;53.574;10.054;2022-10-17T00:51:53;172.10;;;162.82;;
13999;SDS011;7075;53.574;10.054;2022-10-17T00:54:30;155.93;;;147.48;;
13999;SDS011;7075;53.574;10.054;2022-10-17T00:57:05;144.68;;;136.80;;
13999;SDS011;7075;53.574;10.054;2022-10-17T00:59:34;129.70;;;122.53;;
13999;SDS011;7075;53.574;10.054;2022-10-17T01:02:05;118.28;;;111.78;;
13999;SDS011;7075;53.574;10.054;2022-10-17T01:04:33;120.30;;;113.72;;
13999;SDS011;7075;53.574;10.054;2022-10-17T01:07:00;120.53;;;113.93;;
13999;SDS011;7075;53.574;10.054;2022-10-17T01:09:27;111.45;;;105.20;;
13999;SDS011;7075;53.574;10.054;2022-10-17T01:17:14;110.57;;;104.82;;
13999;SDS011;7075;53.574;10.054;2022-10-17T01:20:28;101.97;;;96.47;;
13999;SDS011;7075;53.574;10.054;2022-10-17T01:26:11;109.97;;;104.03;;
13999;SDS011;7075;53.574;10.054;2022-10-17T01:29:00;120.38;;;113.75;;
13999;SDS011;7075;53.574;10.054;2022-10-17T01:31:35;112.77;;;106.67;;
13999;SDS011;7075;53.574;10.054;2022-10-17T01:34:04;119.90;;;113.28;;
13999;SDS011;7075;53.574;10.054;2022-10-17T01:37:12;125.07;;;118.18;;
13999;SDS011;7075;53.574;10.054;2022-10-17T01:39:42;143.95;;;136.05;;
13999;SDS011;7075;53.574;10.054;2022-10-17T01:44:55;138.18;;;130.63;;
13999;SDS011;7075;53.574;10.054;2022-10-17T01:47:25;142.95;;;135.07;;
13999;SDS011;7075;53.574;10.054;2022-10-17T01:49:54;136.35;;;128.80;;
13999;SDS011;7075;53.574;10.054;2022-10-17T01:52:39;133.70;;;126.45;;
13999;SDS011;7075;53.574;10.054;2022-10-17T01:55:28;134.90;;;127.40;;
13999;SDS011;7075;53.574;10.054;2022-10-17T01:58:04;139.52;;;132.00;;
13999;SDS011;7075;53.574;10.054;2022-10-17T02:00:51;137.95;;;130.43;;
13999;SDS011;7075;53.574;10.054;2022-10-17T02:03:18;123.25;;;116.78;;
13999;SDS011;7075;53.574;10.054;2022-10-17T02:05:45;138.40;;;130.80;;
13999;SDS011;7075;53.574;10.054;2022-10-17T02:08:12;130.98;;;123.93;;
13999;SDS011;7075;53.574;10.054;2022-10-17T02:10:42;135.95;;;128.55;;
13999;SDS011;7075;53.574;10.054;2022-10-17T02:24:19;134.15;;;127.05;;
13999;SDS011;7075;53.574;10.054;2022-10-17T02:27:07;132.75;;;125.60;;
13999;SDS011;7075;53.574;10.054;2022-10-17T02:29:41;133.85;;;126.70;;
13999;SDS011;7075;53.574;10.054;2022-10-17T02:32:16;131.23;;;124.35;;
13999;SDS011;7075;53.574;10.054;2022-10-17T02:34:49;131.00;;;123.97;;
13999;SDS011;7075;53.574;10.054;2022-10-17T02:37:18;131.02;;;124.13;;
13999;SDS011;7075;53.574;10.054;2022-10-17T02:39:48;136.15;;;129.07;;
13999;SDS011;7075;53.574;10.054;2022-10-17T02:42:16;130.02;;;122.95;;
13999;SDS011;7075;53.574;10.054;2022-10-17T02:44:43;131.55;;;124.57;;
13999;SDS011;7075;53.574;10.054;2022-10-17T02:47:18;129.70;;;122.95;;
13999;SDS011;7075;53.574;10.054;2022-10-17T02:49:50;135.80;;;128.50;;
13999;SDS011;7075;53.574;10.054;2022-10-17T02:52:36;137.97;;;130.67;;
13999;SDS011;7075;53.574;10.054;2022-10-17T02:55:10;137.40;;;130.27;;
13999;SDS011;7075;53.574;10.054;2022-10-17T02:57:40;138.50;;;131.23;;
13999;SDS011;7075;53.574;10.054;2022-10-17T03:00:33;138.40;;;131.00;;
13999;SDS011;7075;53.574;10.054;2022-10-17T03:02:59;136.50;;;129.15;;
13999;SDS011;7075;53.574;10.054;2022-10-17T03:05:26;137.87;;;130.50;;
13999;SDS011;7075;53.574;10.054;2022-10-17T03:07:53;139.35;;;131.88;;
13999;SDS011;7075;53.574;10.054;2022-10-17T03:10:19;139.77;;;132.52;;
13999;SDS011;7075;53.574;10.054;2022-10-17T03:12:45;143.83;;;136.27;;
13999;SDS011;7075;53.574;10.054;2022-10-17T03:15:11;137.37;;;130.23;;
13999;SDS011;7075;53.574;10.054;2022-10-17T03:17:37;139.18;;;132.02;;
13999;SDS011;7075;53.574;10.054;2022-10-17T03:20:03;139.70;;;132.50;;
13999;SDS011;7075;53.574;10.054;2022-10-17T03:22:29;143.98;;;136.43;;
13999;SDS011;7075;53.574;10.054;2022-10-17T03:24:55;138.90;;;131.43;;
13999;SDS011;7075;53.574;10.054;2022-10-17T03:27:21;135.83;;;128.73;;
13999;SDS011;7075;53.574;10.054;2022-10-17T03:29:46;141.13;;;133.70;;
13999;SDS011;7075;53.574;10.054;2022-10-17T03:32:12;133.57;;;126.60;;
13999;SDS011;7075;53.574;10.054;2022-10-17T03:34:37;139.90;;;132.63;;
13999;SDS011;7075;53.574;10.054;2022-10-17T03:37:03;136.75;;;129.48;;
13999;SDS011;7075;53.574;10.054;2022-10-17T03:39:29;140.73;;;133.50;;
13999;SDS011;7075;53.574;10.054;2022-10-17T03:41:54;141.27;;;133.77;;
13999;SDS011;7075;53.574;10.054;2022-10-17T03:44:20;143.45;;;135.95;;
13999;SDS011;7075;53.574;10.054;2022-10-17T03:46:45;147.17;;;139.33;;
13999;SDS011;7075;53.574;10.054;2022-10-17T03:49:11;151.18;;;143.27;;
13999;SDS011;7075;53.574;10.054;2022-10-17T03:51:36;142.83;;;135.30;;
13999;SDS011;7075;53.574;10.054;2022-10-17T03:54:02;149.70;;;141.87;;
13999;SDS011;7075;53.574;10.054;2022-10-17T03:56:28;141.23;;;133.77;;
13999;SDS011;7075;53.574;10.054;2022-10-17T03:58:54;149.52;;;141.73;;
13999;SDS011;7075;53.574;10.054;2022-10-17T04:01:20;140.23;;;133.00;;
13999;SDS011;7075;53.574;10.054;2022-10-17T04:03:50;144.75;;;137.27;;
13999;SDS011;7075;53.574;10.054;2022-10-17T04:06:18;145.30;;;137.80;;
13999;SDS011;7075;53.574;10.054;2022-10-17T04:08:44;146.90;;;139.25;;
13999;SDS011;7075;53.574;10.054;2022-10-17T04:11:12;148.48;;;140.68;;
13999;SDS011;7075;53.574;10.054;2022-10-17T04:13:40;147.77;;;140.00;;
13999;SDS011;7075;53.574;10.054;2022-10-17T04:16:06;150.83;;;143.03;;
13999;SDS011;7075;53.574;10.054;2022-10-17T04:18:34;143.50;;;136.05;;
13999;SDS011;7075;53.574;10.054;2022-10-17T04:21:01;149.73;;;141.95;;
13999;SDS011;7075;53.574;10.054;2022-10-17T04:23:27;148.02;;;140.35;;
13999;SDS011;7075;53.574;10.054;2022-10-17T04:25:56;150.07;;;142.15;;
13999;SDS011;7075;53.574;10.054;2022-10-17T04:28:23;141.98;;;134.48;;
13999;SDS011;7075;53.574;10.054;2022-10-17T04:30:57;149.63;;;141.48;;
13999;SDS011;7075;53.574;10.054;2022-10-17T04:33:23;155.98;;;147.88;;
13999;SDS011;7075;53.574;10.054;2022-10-17T04:35:59;154.20;;;146.25;;
13999;SDS011;7075;53.574;10.054;2022-10-17T04:38:30;149.57;;;141.75;;
13999;SDS011;7075;53.574;10.054;2022-10-17T04:40:56;152.18;;;144.25;;
13999;SDS011;7075;53.574;10.054;2022-10-17T04:43:23;164.57;;;155.98;;
13999;SDS011;7075;53.574;10.054;2022-10-17T04:45:48;164.75;;;156.13;;
13999;SDS011;7075;53.574;10.054;2022-10-17T04:48:14;149.40;;;141.70;;
13999;SDS011;7075;53.574;10.054;2022-10-17T04:50:39;148.53;;;140.87;;
13999;SDS011;7075;53.574;10.054;2022-10-17T04:53:05;155.23;;;147.10;;
13999;SDS011;7075;53.574;10.054;2022-10-17T04:55:30;156.80;;;148.60;;
13999;SDS011;7075;53.574;10.054;2022-10-17T04:58:00;152.77;;;144.65;;
13999;SDS011;7075;53.574;10.054;2022-10-17T05:00:25;153.23;;;145.30;;
13999;SDS011;7075;53.574;10.054;2022-10-17T05:02:52;162.20;;;153.73;;
13999;SDS011;7075;53.574;10.054;2022-10-17T05:05:18;155.05;;;146.80;;
13999;SDS011;7075;53.574;10.054;2022-10-17T05:07:43;159.90;;;151.53;;
13999;SDS011;7075;53.574;10.054;2022-10-17T05:10:09;160.70;;;152.33;;
13999;SDS011;7075;53.574;10.054;2022-10-17T05:12:34;155.40;;;147.13;;
13999;SDS011;7075;53.574;10.054;2022-10-17T05:15:00;155.03;;;146.57;;
13999;SDS011;7075;53.574;10.054;2022-10-17T05:17:25;154.33;;;146.07;;
13999;SDS011;7075;53.574;10.054;2022-10-17T05:19:51;165.87;;;157.03;;
13999;SDS011;7075;53.574;10.054;2022-10-17T05:22:16;162.73;;;154.13;;
13999;SDS011;7075;53.574;10.054;2022-10-17T05:24:42;165.20;;;156.35;;
13999;SDS011;7075;53.574;10.054;2022-10-17T05:27:07;164.50;;;155.73;;
13999;SDS011;7075;53.574;10.054;2022-10-17T05:29:33;167.30;;;158.50;;
13999;SDS011;7075;53.574;10.054;2022-10-17T05:31:59;171.05;;;162.13;;
13999;SDS011;7075;53.574;10.054;2022-10-17T05:34:24;173.97;;;164.80;;
13999;SDS011;7075;53.574;10.054;2022-10-17T05:36:50;163.40;;;154.80;;
13999;SDS011;7075;53.574;10.054;2022-10-17T05:39:16;169.77;;;160.60;;
13999;SDS011;7075;53.574;10.054;2022-10-17T05:41:43;172.30;;;163.30;;
13999;SDS011;7075;53.574;10.054;2022-10-17T05:44:10;172.50;;;163.32;;
13999;SDS011;7075;53.574;10.054;2022-10-17T05:46:36;170.25;;;161.20;;
13999;SDS011;7075;53.574;10.054;2022-10-17T05:49:01;163.60;;;154.98;;
13999;SDS011;7075;53.574;10.054;2022-10-17T05:51:27;167.60;;;158.57;;
13999;SDS011;7075;53.574;10.054;2022-10-17T05:53:52;170.57;;;161.50;;
13999;SDS011;7075;53.574;10.054;2022-10-17T05:56:18;166.05;;;157.32;;
13999;SDS011;7075;53.574;10.054;2022-10-17T05:58:44;169.18;;;160.30;;
13999;SDS011;7075;53.574;10.054;2022-10-17T06:01:11;177.40;;;167.90;;
13999;SDS011;7075;53.574;10.054;2022-10-17T06:03:37;171.50;;;162.48;;
13999;SDS011;7075;53.574;10.054;2022-10-17T06:06:06;177.90;;;168.40;;
13999;SDS011;7075;53.574;10.054;2022-10-17T06:08:34;171.80;;;162.73;;
13999;SDS011;7075;53.574;10.054;2022-10-17T06:10:59;172.98;;;163.85;;
13999;SDS011;7075;53.574;10.054;2022-10-17T06:13:25;180.10;;;170.57;;
13999;SDS011;7075;53.574;10.054;2022-10-17T06:15:51;173.50;;;164.38;;
13999;SDS011;7075;53.574;10.054;2022-10-17T06:18:16;172.50;;;163.20;;
13999;SDS011;7075;53.574;10.054;2022-10-17T06:20:42;181.33;;;171.93;;
13999;SDS011;7075;53.574;10.054;2022-10-17T06:23:07;174.30;;;165.03;;
13999;SDS011;7075;53.574;10.054;2022-10-17T06:25:33;172.52;;;163.23;;
13999;SDS011;7075;53.574;10.054;2022-10-17T06:27:59;169.10;;;160.20;;
13999;SDS011;7075;53.574;10.054;2022-10-17T06:30:24;173.73;;;164.55;;
13999;SDS011;7075;53.574;10.054;2022-10-17T06:32:50;176.43;;;167.15;;
13999;SDS011;7075;53.574;10.054;2022-10-17T06:35:16;170.50;;;161.38;;
13999;SDS011;7075;53.574;10.054;2022-10-17T06:37:42;179.05;;;169.50;;
13999;SDS011;7075;53.574;10.054;2022-10-17T06:40:08;186.07;;;176.18;;
13999;SDS011;7075;53.574;10.054;2022-10-17T06:42:36;177.73;;;168.25;;
13999;SDS011;7075;53.574;10.054;2022-10-17T06:45:02;185.17;;;175.13;;
13999;SDS011;7075;53.574;10.054;2022-10-17T06:47:28;179.70;;;170.02;;
13999;SDS011;7075;53.574;10.054;2022-10-17T06:49:54;195.03;;;184.63;;
13999;SDS011;7075;53.574;10.054;2022-10-17T06:52:19;189.63;;;179.47;;
13999;SDS011;7075;53.574;10.054;2022-10-17T06:54:45;184.32;;;174.52;;
13999;SDS011;7075;53.574;10.054;2022-10-17T06:57:10;195.50;;;185.03;;
13999;SDS011;7075;53.574;10.054;2022-10-17T06:59:36;190.70;;;180.30;;
13999;SDS011;7075;53.574;10.054;2022-10-17T07:02:02;206.50;;;195.23;;
13999;SDS011;7075;53.574;10.054;2022-10-17T07:04:27;214.20;;;202.40;;
13999;SDS011;7075;53.574;10.054;2022-10-17T07:06:53;209.23;;;197.53;;
13999;SDS011;7075;53.574;10.054;2022-10-17T07:09:18;209.23;;;197.73;;
13999;SDS011;7075;53.574;10.054;2022-10-17T07:11:45;214.82;;;202.68;;
13999;SDS011;7075;53.574;10.054;2022-10-17T07:14:10;214.77;;;202.82;;
13999;SDS011;7075;53.574;10.054;2022-10-17T07:16:36;204.23;;;193.03;;
13999;SDS011;7075;53.574;10.054;2022-10-17T07:19:01;209.35;;;197.95;;
13999;SDS011;7075;53.574;10.054;2022-10-17T07:21:27;202.75;;;191.50;;
13999;SDS011;7075;53.574;10.054;2022-10-17T07:23:53;210.73;;;199.02;;
13999;SDS011;7075;53.574;10.054;2022-10-17T07:26:19;206.68;;;195.30;;
13999;SDS011;7075;53.574;10.054;2022-10-17T07:28:45;202.97;;;191.90;;
13999;SDS011;7075;53.574;10.054;2022-10-17T07:31:13;205.60;;;194.43;;
13999;SDS011;7075;53.574;10.054;2022-10-17T07:33:41;193.93;;;183.30;;
13999;SDS011;7075;53.574;10.054;2022-10-17T07:36:07;184.90;;;174.50;;
13999;SDS011;7075;53.574;10.054;2022-10-17T07:38:33;203.82;;;192.63;;
13999;SDS011;7075;53.574;10.054;2022-10-17T07:41:01;200.13;;;189.00;;
13999;SDS011;7075;53.574;10.054;2022-10-17T07:43:29;191.63;;;181.00;;
13999;SDS011;7075;53.574;10.054;2022-10-17T07:45:55;190.82;;;180.52;;
13999;SDS011;7075;53.574;10.054;2022-10-17T07:48:21;222.77;;;210.60;;
13999;SDS011;7075;53.574;10.054;2022-10-17T07:50:48;205.15;;;193.85;;
13999;SDS011;7075;53.574;10.054;2022-10-17T07:53:14;198.32;;;187.35;;
13999;SDS011;7075;53.574;10.054;2022-10-17T07:55:44;182.23;;;172.25;;
13999;SDS011;7075;53.574;10.054;2022-10-17T07:58:11;186.23;;;175.65;;
13999;SDS011;7075;53.574;10.054;2022-10-17T08:00:37;177.90;;;167.82;;
13999;SDS011;7075;53.574;10.054;2022-10-17T08:03:03;177.73;;;167.55;;
13999;SDS011;7075;53.574;10.054;2022-10-17T08:05:30;165.68;;;156.63;;
13999;SDS011;7075;53.574;10.054;2022-10-17T08:07:56;174.30;;;164.77;;
13999;SDS011;7075;53.574;10.054;2022-10-17T08:10:22;171.82;;;162.52;;
13999;SDS011;7075;53.574;10.054;2022-10-17T08:12:54;177.05;;;167.40;;
13999;SDS011;7075;53.574;10.054;2022-10-17T08:15:21;188.35;;;178.23;;
13999;SDS011;7075;53.574;10.054;2022-10-17T08:17:47;190.75;;;180.65;;
13999;SDS011;7075;53.574;10.054;2022-10-17T08:20:13;188.65;;;178.55;;
13999;SDS011;7075;53.574;10.054;2022-10-17T08:22:40;189.13;;;179.25;;
13999;SDS011;7075;53.574;10.054;2022-10-17T08:25:05;202.00;;;191.55;;
13999;SDS011;7075;53.574;10.054;2022-10-17T08:27:32;191.63;;;181.55;;
13999;SDS011;7075;53.574;10.054;2022-10-17T08:29:58;189.57;;;179.57;;
13999;SDS011;7075;53.574;10.054;2022-10-17T08:32:25;195.00;;;184.80;;
13999;SDS011;7075;53.574;10.054;2022-10-17T08:34:52;196.40;;;186.07;;
13999;SDS011;7075;53.574;10.054;2022-10-17T08:37:19;209.07;;;198.10;;
13999;SDS011;7075;53.574;10.054;2022-10-17T08:39:47;191.77;;;181.47;;
13999;SDS011;7075;53.574;10.054;2022-10-17T08:48:13;221.48;;;209.57;;
13999;SDS011;7075;53.574;10.054;2022-10-17T08:50:49;205.77;;;194.85;;
13999;SDS011;7075;53.574;10.054;2022-10-17T08:56:06;209.27;;;198.25;;
13999;SDS011;7075;53.574;10.054;2022-10-17T08:58:41;208.15;;;197.35;;
13999;SDS011;7075;53.574;10.054;2022-10-17T09:06:26;224.85;;;213.00;;
13999;SDS011;7075;53.574;10.054;2022-10-17T09:19:35;240.75;;;228.25;;
13999;SDS011;7075;53.574;10.054;2022-10-17T09:22:15;238.98;;;226.73;;
13999;SDS011;7075;53.574;10.054;2022-10-17T09:24:48;251.07;;;237.70;;
13999;SDS011;7075;53.574;10.054;2022-10-17T09:27:39;245.70;;;233.20;;
13999;SDS011;7075;53.574;10.054;2022-10-17T09:32:57;252.60;;;239.68;;
13999;SDS011;7075;53.574;10.054;2022-10-17T09:35:22;256.55;;;243.63;;
13999;SDS011;7075;53.574;10.054;2022-10-17T09:37:49;259.47;;;246.37;;
13999;SDS011;7075;53.574;10.054;2022-10-17T09:40:22;261.63;;;248.15;;
13999;SDS011;7075;53.574;10.054;2022-10-17T09:42:50;268.27;;;254.63;;
13999;SDS011;7075;53.574;10.054;2022-10-17T09:45:18;270.25;;;256.30;;
13999;SDS011;7075;53.574;10.054;2022-10-17T09:47:54;264.10;;;250.75;;
13999;SDS011;7075;53.574;10.054;2022-10-17T09:50:35;273.47;;;259.43;;
13999;SDS011;7075;53.574;10.054;2022-10-17T09:55:48;262.05;;;248.65;;
13999;SDS011;7075;53.574;10.054;2022-10-17T09:58:19;271.70;;;257.67;;
13999;SDS011;7075;53.574;10.054;2022-10-17T10:00:45;268.07;;;254.03;;
13999;SDS011;7075;53.574;10.054;2022-10-17T10:03:22;280.08;;;265.65;;
13999;SDS011;7075;53.574;10.054;2022-10-17T10:06:08;277.00;;;262.67;;
13999;SDS011;7075;53.574;10.054;2022-10-17T10:08:58;277.37;;;263.17;;
13999;SDS011;7075;53.574;10.054;2022-10-17T10:11:45;277.53;;;263.23;;
13999;SDS011;7075;53.574;10.054;2022-10-17T10:14:31;281.10;;;266.67;;
13999;SDS011;7075;53.574;10.054;2022-10-17T10:17:02;283.00;;;268.25;;
13999;SDS011;7075;53.574;10.054;2022-10-17T10:19:31;283.50;;;268.65;;
13999;SDS011;7075;53.574;10.054;2022-10-17T10:22:03;284.75;;;269.65;;
13999;SDS011;7075;53.574;10.054;2022-10-17T10:24:31;282.17;;;267.52;;
13999;SDS011;7075;53.574;10.054;2022-10-17T10:26:58;277.70;;;263.38;;
13999;SDS011;7075;53.574;10.054;2022-10-17T10:37:56;280.25;;;265.85;;
13999;SDS011;7075;53.574;10.054;2022-10-17T10:42:56;285.27;;;270.48;;
13999;SDS011;7075;53.574;10.054;2022-10-17T11:01:04;276.58;;;262.20;;
13999;SDS011;7075;53.574;10.054;2022-10-17T11:03:38;285.30;;;270.48;;
13999;SDS011;7075;53.574;10.054;2022-10-17T11:06:22;287.20;;;272.17;;
13999;SDS011;7075;53.574;10.054;2022-10-17T11:11:40;285.25;;;270.05;;
13999;SDS011;7075;53.574;10.054;2022-10-17T11:14:20;287.17;;;272.17;;
13999;SDS011;7075;53.574;10.054;2022-10-17T11:17:02;292.73;;;277.65;;
13999;SDS011;7075;53.574;10.054;2022-10-17T11:22:18;287.05;;;271.98;;
13999;SDS011;7075;53.574;10.054;2022-10-17T11:24:59;289.50;;;274.25;;
13999;SDS011;7075;53.574;10.054;2022-10-17T11:27:41;285.83;;;270.55;;
13999;SDS011;7075;53.574;10.054;2022-10-17T11:30:08;277.52;;;263.10;;
13999;SDS011;7075;53.574;10.054;2022-10-17T11:32:48;289.52;;;273.98;;
13999;SDS011;7075;53.574;10.054;2022-10-17T11:35:24;281.02;;;266.48;;
13999;SDS011;7075;53.574;10.054;2022-10-17T11:37:56;275.93;;;261.40;;
13999;SDS011;7075;53.574;10.054;2022-10-17T11:40:47;273.27;;;258.40;;
13999;SDS011;7075;53.574;10.054;2022-10-17T11:43:28;278.98;;;264.48;;
13999;SDS011;7075;53.574;10.054;2022-10-17T11:46:02;276.45;;;261.77;;
13999;SDS011;7075;53.574;10.054;2022-10-17T11:48:40;271.05;;;256.80;;
13999;SDS011;7075;53.574;10.054;2022-10-17T11:51:10;289.87;;;274.57;;
13999;SDS011;7075;53.574;10.054;2022-10-17T11:53:42;288.08;;;273.02;;
13999;SDS011;7075;53.574;10.054;2022-10-17T11:56:28;277.75;;;263.15;;
13999;SDS011;7075;53.574;10.054;2022-10-17T12:02:24;294.75;;;279.38;;
13999;SDS011;7075;53.574;10.054;2022-10-17T12:04:59;300.55;;;284.80;;
13999;SDS011;7075;53.574;10.054;2022-10-17T12:07:47;289.03;;;273.80;;
13999;SDS011;7075;53.574;10.054;2022-10-17T12:10:32;299.10;;;283.60;;
13999;SDS011;7075;53.574;10.054;2022-10-17T12:15:52;313.85;;;297.50;;
13999;SDS011;7075;53.574;10.054;2022-10-17T12:18:24;298.27;;;282.42;;
13999;SDS011;7075;53.574;10.054;2022-10-17T12:20:55;307.13;;;290.90;;
13999;SDS011;7075;53.574;10.054;2022-10-17T12:23:30;312.87;;;296.20;;
13999;SDS011;7075;53.574;10.054;2022-10-17T12:30:55;291.90;;;276.40;;
13999;SDS011;7075;53.574;10.054;2022-10-17T12:33:58;284.50;;;269.48;;
13999;SDS011;7075;53.574;10.054;2022-10-17T12:44:34;285.65;;;270.77;;
13999;SDS011;7075;53.574;10.054;2022-10-17T12:46:56;294.90;;;279.52;;
13999;SDS011;7075;53.574;10.054;2022-10-17T12:49:39;297.90;;;282.13;;
13999;SDS011;7075;53.574;10.054;2022-10-17T12:54:44;296.40;;;280.52;;
13999;SDS011;7075;53.574;10.054;2022-10-17T13:00:44;292.25;;;276.92;;
13999;SDS011;7075;53.574;10.054;2022-10-17T13:03:21;302.25;;;286.35;;
13999;SDS011;7075;53.574;10.054;2022-10-17T13:05:58;293.80;;;278.38;;
13999;SDS011;7075;53.574;10.054;2022-10-17T13:08:27;285.85;;;270.77;;
13999;SDS011;7075;53.574;10.054;2022-10-17T13:10:57;297.67;;;281.88;;
13999;SDS011;7075;53.574;10.054;2022-10-17T13:13:26;295.27;;;279.98;;
13999;SDS011;7075;53.574;10.054;2022-10-17T13:16:25;287.88;;;272.73;;
13999;SDS011;7075;53.574;10.054;2022-10-17T13:18:58;260.98;;;247.38;;
13999;SDS011;7075;53.574;10.054;2022-10-17T13:21:25;186.32;;;176.07;;
13999;SDS011;7075;53.574;10.054;2022-10-17T13:23:51;168.63;;;159.00;;
13999;SDS011;7075;53.574;10.054;2022-10-17T13:26:22;149.30;;;140.73;;
13999;SDS011;7075;53.574;10.054;2022-10-17T13:31:36;173.63;;;163.88;;
13999;SDS011;7075;53.574;10.054;2022-10-17T13:34:14;177.73;;;167.27;;
13999;SDS011;7075;53.574;10.054;2022-10-17T13:36:41;169.82;;;160.07;;
13999;SDS011;7075;53.574;10.054;2022-10-17T13:39:12;185.35;;;174.55;;
13999;SDS011;7075;53.574;10.054;2022-10-17T13:41:39;191.95;;;180.23;;
13999;SDS011;7075;53.574;10.054;2022-10-17T13:44:11;187.70;;;177.15;;
13999;SDS011;7075;53.574;10.054;2022-10-17T13:46:39;198.35;;;186.88;;
13999;SDS011;7075;53.574;10.054;2022-10-17T13:49:15;197.02;;;185.45;;
13999;SDS011;7075;53.574;10.054;2022-10-17T13:51:45;198.13;;;186.65;;
13999;SDS011;7075;53.574;10.054;2022-10-17T13:54:33;203.18;;;191.15;;
13999;SDS011;7075;53.574;10.054;2022-10-17T13:57:17;195.18;;;183.30;;
13999;SDS011;7075;53.574;10.054;2022-10-17T13:59:43;205.88;;;193.45;;
13999;SDS011;7075;53.574;10.054;2022-10-17T14:02:18;193.27;;;181.68;;
13999;SDS011;7075;53.574;10.054;2022-10-17T14:04:58;216.95;;;204.02;;
13999;SDS011;7075;53.574;10.054;2022-10-17T14:07:34;200.40;;;188.88;;
13999;SDS011;7075;53.574;10.054;2022-10-17T14:10:05;194.75;;;183.23;;
13999;SDS011;7075;53.574;10.054;2022-10-17T14:12:42;193.73;;;182.60;;
13999;SDS011;7075;53.574;10.054;2022-10-17T14:15:08;178.77;;;168.20;;
13999;SDS011;7075;53.574;10.054;2022-10-17T14:17:38;169.80;;;159.90;;
13999;SDS011;7075;53.574;10.054;2022-10-17T14:20:04;159.20;;;149.70;;
13999;SDS011;7075;53.574;10.054;2022-10-17T14:22:35;156.98;;;147.75;;
13999;SDS011;7075;53.574;10.054;2022-10-17T14:25:01;162.10;;;152.57;;
13999;SDS011;7075;53.574;10.054;2022-10-17T14:30:00;152.00;;;143.25;;
13999;SDS011;7075;53.574;10.054;2022-10-17T14:32:55;154.35;;;145.15;;
13999;SDS011;7075;53.574;10.054;2022-10-17T14:35:22;156.35;;;147.02;;
13999;SDS011;7075;53.574;10.054;2022-10-17T14:37:49;155.18;;;146.18;;
13999;SDS011;7075;53.574;10.054;2022-10-17T14:40:17;148.07;;;139.77;;
13999;SDS011;7075;53.574;10.054;2022-10-17T14:42:45;146.88;;;138.57;;
13999;SDS011;7075;53.574;10.054;2022-10-17T14:45:13;144.02;;;135.50;;
13999;SDS011;7075;53.574;10.054;2022-10-17T14:47:43;150.90;;;142.07;;
13999;SDS011;7075;53.574;10.054;2022-10-17T14:52:39;141.67;;;133.23;;
13999;SDS011;7075;53.574;10.054;2022-10-17T14:55:24;143.50;;;135.05;;
13999;SDS011;7075;53.574;10.054;2022-10-17T14:57:51;127.80;;;120.57;;
13999;SDS011;7075;53.574;10.054;2022-10-17T15:00:17;131.40;;;124.00;;
13999;SDS011;7075;53.574;10.054;2022-10-17T15:02:44;130.65;;;123.28;;
13999;SDS011;7075;53.574;10.054;2022-10-17T15:05:11;126.78;;;119.55;;
13999;SDS011;7075;53.574;10.054;2022-10-17T15:07:41;134.65;;;126.75;;
13999;SDS011;7075;53.574;10.054;2022-10-17T15:12:54;141.18;;;133.02;;
13999;SDS011;7075;53.574;10.054;2022-10-17T15:15:20;142.10;;;133.73;;
13999;SDS011;7075;53.574;10.054;2022-10-17T15:17:45;138.60;;;130.23;;
13999;SDS011;7075;53.574;10.054;2022-10-17T15:20:12;139.45;;;131.25;;
13999;SDS011;7075;53.574;10.054;2022-10-17T15:22:40;145.43;;;136.87;;
13999;SDS011;7075;53.574;10.054;2022-10-17T15:25:06;145.50;;;136.83;;
13999;SDS011;7075;53.574;10.054;2022-10-17T15:27:32;145.27;;;136.70;;
13999;SDS011;7075;53.574;10.054;2022-10-17T15:29:57;137.27;;;129.33;;
13999;SDS011;7075;53.574;10.054;2022-10-17T15:32:24;147.32;;;138.70;;
13999;SDS011;7075;53.574;10.054;2022-10-17T15:34:50;154.02;;;144.75;;
13999;SDS011;7075;53.574;10.054;2022-10-17T15:37:19;157.97;;;148.40;;
13999;SDS011;7075;53.574;10.054;2022-10-17T15:39:50;168.02;;;157.90;;
13999;SDS011;7075;53.574;10.054;2022-10-17T15:42:18;178.70;;;167.77;;
13999;SDS011;7075;53.574;10.054;2022-10-17T15:44:50;176.10;;;165.18;;
13999;SDS011;7075;53.574;10.054;2022-10-17T15:47:34;176.97;;;166.37;;
13999;SDS011;7075;53.574;10.054;2022-10-17T15:50:00;187.05;;;175.32;;
13999;SDS011;7075;53.574;10.054;2022-10-17T15:52:26;184.02;;;173.02;;
13999;SDS011;7075;53.574;10.054;2022-10-17T15:54:55;191.63;;;179.95;;
13999;SDS011;7075;53.574;10.054;2022-10-17T15:57:22;181.57;;;170.40;;
13999;SDS011;7075;53.574;10.054;2022-10-17T15:59:50;185.73;;;174.57;;
13999;SDS011;7075;53.574;10.054;2022-10-17T16:02:17;183.68;;;172.55;;
13999;SDS011;7075;53.574;10.054;2022-10-17T16:04:44;180.88;;;170.10;;
13999;SDS011;7075;53.574;10.054;2022-10-17T16:07:11;181.52;;;170.55;;
13999;SDS011;7075;53.574;10.054;2022-10-17T16:09:36;192.13;;;180.47;;
13999;SDS011;7075;53.574;10.054;2022-10-17T16:12:08;195.18;;;183.65;;
13999;SDS011;7075;53.574;10.054;2022-10-17T16:14:37;183.13;;;172.18;;